createdAt,value
2018-01-01T00:02:00.521Z,8.20
2018-01-01T00:04:28.782Z,8.20
2018-01-01T00:06:56.297Z,8.20
2018-01-01T00:09:23.784Z,8.20
2018-01-01T00:11:51.261Z,8.10
2018-01-01T00:14:19.508Z,8.10
2018-01-01T00:16:46.986Z,8.00
2018-01-01T00:19:14.457Z,8.00
2018-01-01T00:21:42.716Z,8.10
2018-01-01T00:24:10.201Z,8.10
2018-01-01T00:26:37.687Z,8.10
2018-01-01T00:29:05.172Z,8.10
2018-01-01T00:31:32.663Z,8.00
2018-01-01T00:34:00.129Z,8.00
2018-01-01T00:36:27.600Z,8.00
2018-01-01T00:38:55.070Z,8.00
2018-01-01T00:41:22.542Z,7.90
2018-01-01T00:43:50.009Z,8.00
2018-01-01T00:46:17.461Z,7.90
2018-01-01T00:48:45.159Z,7.90
2018-01-01T00:51:12.604Z,7.80
2018-01-01T00:53:40.068Z,7.80
2018-01-01T00:56:07.550Z,7.90
2018-01-01T00:58:35.784Z,7.90
2018-01-01T01:01:03.287Z,7.90
2018-01-01T01:03:32.640Z,7.90
2018-01-01T01:06:00.116Z,7.80
2018-01-01T01:08:27.614Z,7.80
2018-01-01T01:10:55.093Z,7.80
2018-01-01T01:13:22.563Z,7.80
2018-01-01T01:15:50.049Z,7.90
2018-01-01T01:18:17.498Z,7.80
2018-01-01T01:20:45.044Z,7.90
2018-01-01T01:23:12.539Z,7.70
2018-01-01T01:28:14.780Z,7.70
2018-01-01T01:30:42.252Z,7.70
2018-01-01T01:33:09.735Z,7.60
2018-01-01T01:35:37.206Z,7.60
2018-01-01T01:38:04.680Z,7.60
2018-01-01T01:40:32.150Z,7.60
2018-01-01T01:42:59.615Z,7.60
2018-01-01T01:45:27.082Z,7.60
2018-01-01T01:47:54.562Z,7.50
2018-01-01T01:50:22.021Z,7.50
2018-01-01T01:52:49.503Z,7.50
2018-01-01T01:55:17.732Z,7.50
2018-01-01T01:57:45.234Z,7.40
2018-01-01T02:00:13.488Z,7.40
2018-01-01T02:02:40.950Z,7.40
2018-01-01T02:05:08.444Z,7.40
2018-01-01T02:07:35.931Z,7.40
2018-01-01T02:10:03.407Z,7.30
2018-01-01T02:12:30.946Z,7.30
2018-01-01T02:14:58.380Z,7.40
2018-01-01T02:17:25.864Z,7.40
2018-01-01T02:19:53.341Z,7.40
2018-01-01T02:22:20.823Z,7.40
2018-01-01T02:24:48.317Z,7.40
2018-01-01T02:27:15.801Z,7.40
2018-01-01T02:29:43.321Z,7.30
2018-01-01T02:32:23.284Z,7.30
2018-01-01T02:34:50.763Z,7.30
2018-01-01T02:37:18.232Z,7.30
2018-01-01T02:39:45.725Z,7.20
2018-01-01T02:42:13.974Z,7.40
2018-01-01T02:44:41.442Z,7.30
2018-01-01T02:47:08.929Z,7.40
2018-01-01T02:49:36.417Z,7.40
2018-01-01T02:52:03.905Z,7.40
2018-01-01T02:54:31.387Z,7.30
2018-01-01T02:56:59.617Z,7.00
2018-01-01T02:59:27.126Z,7.10
2018-01-01T03:01:55.383Z,6.80
2018-01-01T03:04:22.866Z,6.80
2018-01-01T03:06:51.203Z,6.90
2018-01-01T03:09:19.669Z,7.00
2018-01-01T03:11:47.171Z,6.90
2018-01-01T03:14:14.640Z,6.80
2018-01-01T03:16:42.159Z,6.70
2018-01-01T03:19:09.648Z,6.50
2018-01-01T03:21:37.902Z,5.60
2018-01-01T03:24:05.377Z,5.50
2018-01-01T03:26:33.659Z,5.40
2018-01-01T03:29:01.936Z,5.40
2018-01-01T03:31:30.242Z,5.20
2018-01-01T03:33:58.614Z,5.20
2018-01-01T03:36:26.129Z,5.20
2018-01-01T03:38:53.603Z,5.20
2018-01-01T03:41:21.850Z,5.30
2018-01-01T03:43:49.385Z,5.30
2018-01-01T03:46:16.862Z,5.30
2018-01-01T03:48:44.349Z,5.30
2018-01-01T03:51:12.612Z,5.20
2018-01-01T03:53:40.080Z,5.20
2018-01-01T03:56:08.336Z,5.20
2018-01-01T03:58:35.798Z,5.10
2018-01-01T04:01:03.280Z,5.10
2018-01-01T04:03:31.546Z,5.00
2018-01-01T04:05:59.796Z,5.10
2018-01-01T04:08:27.274Z,5.10
2018-01-01T04:10:56.476Z,5.10
2018-01-01T04:13:23.958Z,5.10
2018-01-01T04:15:51.406Z,5.00
2018-01-01T04:18:18.873Z,5.00
2018-01-01T04:20:46.354Z,5.00
2018-01-01T04:23:13.855Z,4.90
2018-01-01T04:25:41.338Z,5.00
2018-01-01T04:28:08.802Z,5.10
2018-01-01T04:30:36.269Z,5.20
2018-01-01T04:33:03.769Z,5.20
2018-01-01T04:35:31.240Z,5.20
2018-01-01T04:37:58.732Z,5.20
2018-01-01T04:40:26.205Z,5.20
2018-01-01T04:42:53.677Z,5.10
2018-01-01T04:45:21.168Z,5.20
2018-01-01T04:47:48.624Z,5.30
2018-01-01T04:50:16.098Z,5.30
2018-01-01T04:52:44.321Z,5.40
2018-01-01T04:55:11.789Z,5.40
2018-01-01T04:57:40.081Z,5.30
2018-01-01T05:00:07.583Z,5.30
2018-01-01T05:02:35.542Z,5.30
2018-01-01T05:05:03.020Z,5.20
2018-01-01T05:07:30.496Z,5.10
2018-01-01T05:09:58.816Z,5.00
2018-01-01T05:12:27.067Z,4.80
2018-01-01T05:14:54.562Z,4.90
2018-01-01T05:17:23.107Z,4.80
2018-01-01T05:19:50.584Z,4.80
2018-01-01T05:22:18.105Z,4.90
2018-01-01T05:24:45.558Z,4.90
2018-01-01T05:27:13.071Z,4.90
2018-01-01T05:29:40.565Z,4.90
2018-01-01T05:32:08.086Z,4.90
2018-01-01T05:34:36.356Z,4.90
2018-01-01T05:37:04.607Z,4.90
2018-01-01T05:39:32.127Z,4.80
2018-01-01T05:41:59.574Z,4.90
2018-01-01T05:44:27.360Z,4.90
2018-01-01T05:46:54.886Z,4.90
2018-01-01T05:49:22.367Z,4.80
2018-01-01T05:51:49.917Z,4.80
2018-01-01T05:54:17.411Z,4.80
2018-01-01T05:56:44.879Z,4.70
2018-01-01T05:59:13.382Z,4.60
2018-01-01T06:01:40.850Z,4.60
2018-01-01T06:04:09.122Z,4.50
2018-01-01T06:06:37.639Z,4.40
2018-01-01T06:09:05.089Z,4.40
2018-01-01T06:11:32.586Z,4.30
2018-01-01T06:14:00.091Z,4.30
2018-01-01T06:16:27.568Z,4.40
2018-01-01T06:18:55.029Z,4.40
2018-01-01T06:21:22.510Z,4.50
2018-01-01T06:23:50.772Z,4.50
2018-01-01T06:26:18.255Z,4.60
2018-01-01T06:28:45.745Z,4.70
2018-01-01T06:31:13.994Z,4.70
2018-01-01T06:33:41.494Z,4.70
2018-01-01T06:36:09.015Z,4.70
2018-01-01T06:38:36.478Z,4.80
2018-01-01T06:41:03.952Z,4.80
2018-01-01T06:43:31.442Z,4.80
2018-01-01T06:45:59.713Z,4.60
2018-01-01T06:48:27.480Z,4.60
2018-01-01T06:50:54.963Z,4.70
2018-01-01T06:53:22.448Z,4.70
2018-01-01T06:55:50.716Z,4.70
2018-01-01T06:58:18.196Z,4.70
2018-01-01T07:00:45.683Z,4.70
2018-01-01T07:03:13.252Z,4.70
2018-01-01T07:05:40.732Z,4.70
2018-01-01T07:08:08.241Z,4.70
2018-01-01T07:10:35.717Z,4.80
2018-01-01T07:13:03.220Z,4.80
2018-01-01T07:15:30.726Z,4.90
2018-01-01T07:17:58.271Z,4.80
2018-01-01T07:20:25.752Z,4.80
2018-01-01T07:22:53.287Z,4.70
2018-01-01T07:25:20.812Z,4.70
2018-01-01T07:27:48.318Z,4.70
2018-01-01T07:30:15.810Z,4.70
2018-01-01T07:32:43.645Z,4.60
2018-01-01T07:35:11.142Z,4.60
2018-01-01T07:37:38.658Z,4.60
2018-01-01T07:40:06.163Z,4.70
2018-01-01T07:42:33.664Z,4.60
2018-01-01T07:45:01.178Z,4.60
2018-01-01T07:47:28.656Z,4.60
2018-01-01T07:49:56.184Z,4.60
2018-01-01T07:52:23.690Z,4.60
2018-01-01T07:54:51.932Z,4.70
2018-01-01T07:57:19.474Z,4.70
2018-01-01T07:59:46.985Z,4.70
2018-01-01T08:02:14.450Z,4.80
2018-01-01T08:04:41.925Z,4.80
2018-01-01T08:07:09.433Z,4.80
2018-01-01T08:09:37.733Z,4.80
2018-01-01T08:12:05.991Z,4.80
2018-01-01T08:14:34.290Z,4.80
2018-01-01T08:17:01.791Z,4.80
2018-01-01T08:19:29.322Z,4.40
2018-01-01T08:21:56.820Z,4.80
2018-01-01T08:24:24.361Z,4.80
2018-01-01T08:26:51.846Z,4.80
2018-01-01T08:29:19.711Z,4.90
2018-01-01T08:31:47.319Z,5.00
2018-01-01T08:34:14.806Z,5.00
2018-01-01T08:36:42.289Z,5.20
2018-01-01T08:39:10.722Z,5.30
2018-01-01T08:41:38.273Z,5.30
2018-01-01T08:44:05.755Z,5.40
2018-01-01T08:46:33.341Z,5.40
2018-01-01T08:52:12.506Z,5.40
2018-01-01T08:54:40.646Z,5.40
2018-01-01T08:57:11.281Z,5.40
2018-01-01T08:59:39.669Z,5.10
2018-01-01T09:02:08.016Z,5.20
2018-01-01T09:04:35.564Z,5.00
2018-01-01T09:07:03.102Z,5.10
2018-01-01T09:09:30.642Z,5.10
2018-01-01T09:11:58.286Z,5.00
2018-01-01T09:14:25.890Z,5.00
2018-01-01T09:16:53.491Z,5.10
2018-01-01T09:19:21.003Z,5.20
2018-01-01T09:21:48.505Z,5.30
2018-01-01T09:24:16.065Z,5.30
2018-01-01T09:26:43.654Z,5.40
2018-01-01T09:29:12.003Z,5.60
2018-01-01T09:31:40.343Z,5.70
2018-01-01T09:34:07.929Z,5.70
2018-01-01T09:36:35.469Z,5.70
2018-01-01T09:39:02.959Z,5.50
2018-01-01T09:41:30.442Z,5.50
2018-01-01T09:44:00.910Z,5.40
2018-01-01T09:46:29.281Z,5.40
2018-01-01T09:48:56.791Z,5.50
2018-01-01T09:51:24.294Z,5.40
2018-01-01T09:53:51.779Z,5.40
2018-01-01T09:56:19.309Z,5.50
2018-01-01T09:58:46.821Z,5.40
2018-01-01T10:01:14.326Z,5.50
2018-01-01T10:03:41.810Z,5.50
2018-01-01T10:06:09.340Z,5.60
2018-01-01T10:08:36.829Z,5.80
2018-01-01T10:11:05.397Z,6.00
2018-01-01T10:13:33.770Z,5.90
2018-01-01T10:16:02.027Z,5.90
2018-01-01T10:18:37.403Z,5.90
2018-01-01T10:21:04.997Z,5.90
2018-01-01T10:23:32.875Z,6.40
2018-01-01T10:26:00.437Z,6.00
2018-01-01T10:28:28.688Z,6.70
2018-01-01T10:30:57.645Z,6.70
2018-01-01T10:33:25.168Z,6.80
2018-01-01T10:35:53.637Z,6.80
2018-01-01T10:38:21.874Z,6.80
2018-01-01T10:40:49.355Z,6.70
2018-01-01T10:43:21.592Z,6.50
2018-01-01T10:45:49.076Z,6.50
2018-01-01T10:48:16.590Z,6.70
2018-01-01T10:50:44.084Z,7.10
2018-01-01T10:53:11.546Z,7.40
2018-01-01T10:55:39.027Z,7.40
2018-01-01T10:58:08.156Z,7.40
2018-01-01T11:00:35.605Z,7.40
2018-01-01T11:03:03.090Z,7.30
2018-01-01T11:05:30.578Z,7.20
2018-01-01T11:07:58.084Z,7.40
2018-01-01T11:10:25.562Z,7.50
2018-01-01T11:12:53.067Z,7.40
2018-01-01T11:15:20.568Z,7.00
2018-01-01T11:17:48.037Z,6.60
2018-01-01T11:20:15.500Z,6.40
2018-01-01T11:22:42.996Z,6.50
2018-01-01T11:25:10.512Z,6.40
2018-01-01T11:27:38.009Z,6.30
2018-01-01T11:30:05.488Z,6.40
2018-01-01T11:32:33.783Z,6.30
2018-01-01T11:35:01.235Z,6.20
2018-01-01T11:37:28.733Z,6.20
2018-01-01T11:39:56.228Z,6.30
2018-01-01T11:42:24.476Z,6.10
2018-01-01T11:44:51.950Z,6.20
2018-01-01T11:47:19.452Z,6.20
2018-01-01T11:49:46.921Z,6.20
2018-01-01T11:52:14.458Z,6.20
2018-01-01T11:54:41.921Z,6.10
2018-01-01T11:57:09.424Z,6.20
2018-01-01T11:59:36.928Z,6.20
2018-01-01T12:02:04.401Z,6.20
2018-01-01T12:04:31.882Z,6.20
2018-01-01T12:06:59.369Z,6.10
2018-01-01T12:09:26.882Z,6.10
2018-01-01T12:11:54.386Z,6.00
2018-01-01T12:14:21.873Z,6.10
2018-01-01T12:16:49.362Z,6.10
2018-01-01T12:19:16.861Z,6.10
2018-01-01T12:21:44.348Z,6.20
2018-01-01T12:24:12.581Z,6.20
2018-01-01T12:26:40.052Z,6.20
2018-01-01T12:29:08.160Z,6.20
2018-01-01T12:31:35.618Z,6.30
2018-01-01T12:34:03.067Z,6.40
2018-01-01T12:36:30.574Z,6.30
2018-01-01T12:38:58.058Z,6.30
2018-01-01T12:41:25.534Z,6.10
2018-01-01T12:43:53.588Z,6.10
2018-01-01T12:46:21.048Z,6.00
2018-01-01T12:48:50.073Z,6.20
2018-01-01T12:51:17.520Z,6.10
2018-01-01T12:53:45.055Z,6.10
2018-01-01T12:56:13.299Z,6.10
2018-01-01T12:58:40.781Z,6.00
2018-01-01T13:01:08.314Z,6.10
2018-01-01T13:03:35.793Z,6.10
2018-01-01T13:06:03.589Z,6.00
2018-01-01T13:08:31.084Z,6.10
2018-01-01T13:10:58.573Z,6.10
2018-01-01T13:13:26.086Z,6.00
2018-01-01T13:15:53.549Z,5.90
2018-01-01T13:18:21.610Z,6.00
2018-01-01T13:20:49.097Z,5.90
2018-01-01T13:23:16.605Z,5.90
2018-01-01T13:25:44.128Z,6.00
2018-01-01T13:28:11.626Z,6.00
2018-01-01T13:30:39.158Z,6.00
2018-01-01T13:33:06.687Z,6.00
2018-01-01T13:35:34.219Z,5.90
2018-01-01T13:38:01.728Z,5.90
2018-01-01T13:40:29.231Z,5.90
2018-01-01T13:42:56.768Z,5.90
2018-01-01T13:45:25.068Z,5.90
2018-01-01T13:47:52.553Z,5.90
2018-01-01T13:50:20.043Z,5.80
2018-01-01T13:52:47.519Z,5.80
2018-01-01T13:55:14.987Z,5.80
2018-01-01T13:57:42.456Z,5.90
2018-01-01T14:00:09.979Z,5.80
2018-01-01T14:02:38.243Z,5.90
2018-01-01T14:05:05.700Z,5.90
2018-01-01T14:07:33.988Z,6.00
2018-01-01T14:10:02.256Z,6.00
2018-01-01T14:12:30.506Z,5.90
2018-01-01T14:14:57.994Z,6.00
2018-01-01T14:17:25.465Z,6.00
2018-01-01T14:19:53.714Z,6.00
2018-01-01T14:22:21.195Z,6.00
2018-01-01T14:24:48.679Z,6.00
2018-01-01T14:27:16.945Z,5.80
2018-01-01T14:29:44.444Z,5.70
2018-01-01T14:32:11.955Z,5.70
2018-01-01T14:34:39.455Z,5.50
2018-01-01T14:37:06.964Z,5.50
2018-01-01T14:39:35.219Z,5.60
2018-01-01T14:42:02.775Z,5.50
2018-01-01T14:44:30.260Z,5.50
2018-01-01T14:46:57.742Z,5.30
2018-01-01T14:49:25.258Z,5.30
2018-01-01T14:51:52.746Z,5.10
2018-01-01T14:54:20.244Z,4.80
2018-01-01T14:56:47.822Z,4.80
2018-01-01T14:59:15.306Z,4.70
2018-01-01T15:01:43.829Z,4.50
2018-01-01T15:04:11.317Z,4.50
2018-01-01T15:06:38.804Z,4.40
2018-01-01T15:09:06.280Z,4.30
2018-01-01T15:11:33.758Z,4.30
2018-01-01T15:14:01.246Z,4.30
2018-01-01T15:16:28.726Z,4.20
2018-01-01T15:18:56.958Z,4.00
2018-01-01T15:21:24.446Z,4.00
2018-01-01T15:23:53.405Z,3.80
2018-01-01T15:26:20.882Z,3.80
2018-01-01T15:28:48.347Z,3.80
2018-01-01T15:31:15.826Z,3.80
2018-01-01T15:33:43.307Z,3.80
2018-01-01T15:36:10.791Z,3.80
2018-01-01T15:38:38.259Z,3.70
2018-01-01T15:41:05.734Z,3.60
2018-01-01T15:43:33.185Z,3.70
2018-01-01T15:46:00.669Z,3.70
2018-01-01T15:48:28.894Z,3.60
2018-01-01T15:50:56.375Z,3.70
2018-01-01T15:53:24.590Z,3.70
2018-01-01T15:55:52.236Z,3.80
2018-01-01T15:58:19.708Z,3.80
2018-01-01T16:00:47.183Z,3.70
2018-01-01T16:03:14.660Z,3.70
2018-01-01T16:05:42.183Z,3.60
2018-01-01T16:08:09.645Z,3.70
2018-01-01T16:10:37.160Z,3.70
2018-01-01T16:13:04.636Z,3.70
2018-01-01T16:15:32.138Z,3.80
2018-01-01T16:17:59.719Z,3.80
2018-01-01T16:20:28.616Z,3.70
2018-01-01T16:22:59.176Z,3.80
2018-01-01T16:25:27.455Z,3.80
2018-01-01T16:27:54.930Z,3.70
2018-01-01T16:30:22.419Z,3.80
2018-01-01T16:32:50.770Z,3.80
2018-01-01T16:35:18.321Z,3.70
2018-01-01T16:37:45.822Z,3.80
2018-01-01T16:40:13.301Z,3.80
2018-01-01T16:42:41.323Z,3.80
2018-01-01T16:45:09.549Z,3.10
2018-01-01T16:47:37.187Z,3.70
2018-01-01T16:50:04.703Z,3.70
2018-01-01T16:52:32.846Z,3.80
2018-01-01T16:55:00.339Z,3.80
2018-01-01T16:57:28.648Z,3.60
2018-01-01T16:59:56.155Z,3.60
2018-01-01T17:02:24.414Z,3.80
2018-01-01T17:04:52.673Z,3.80
2018-01-01T17:07:20.320Z,3.80
2018-01-01T17:09:47.814Z,3.80
2018-01-01T17:12:16.160Z,3.80
2018-01-01T17:14:43.664Z,3.70
2018-01-01T17:17:11.167Z,3.80
2018-01-01T17:19:38.664Z,3.90
2018-01-01T17:22:06.955Z,3.80
2018-01-01T17:24:34.455Z,3.80
2018-01-01T17:27:02.576Z,3.70
2018-01-01T17:29:30.104Z,3.80
2018-01-01T17:31:57.594Z,3.80
2018-01-01T17:34:26.137Z,3.80
2018-01-01T17:36:53.701Z,3.70
2018-01-01T17:39:21.364Z,3.80
2018-01-01T17:41:48.987Z,3.80
2018-01-01T17:44:16.521Z,3.80
2018-01-01T17:46:44.929Z,3.80
2018-01-01T17:49:12.596Z,3.80
2018-01-01T17:51:40.220Z,3.80
2018-01-01T17:54:08.467Z,3.90
2018-01-01T17:56:36.684Z,3.80
2018-01-01T17:59:04.180Z,3.90
2018-01-01T18:01:31.766Z,3.90
2018-01-01T18:03:59.276Z,3.90
2018-01-01T18:06:26.815Z,3.90
2018-01-01T18:08:54.348Z,3.90
2018-01-01T18:11:22.721Z,4.00
2018-01-01T18:13:50.252Z,4.00
2018-01-01T18:16:17.786Z,4.00
2018-01-01T18:18:45.309Z,4.00
2018-01-01T18:21:12.851Z,4.00
2018-01-01T18:23:40.322Z,4.10
2018-01-01T18:26:08.577Z,4.00
2018-01-01T18:28:36.054Z,4.10
2018-01-01T18:31:04.306Z,4.10
2018-01-01T18:33:32.660Z,4.10
2018-01-01T18:36:00.178Z,4.10
2018-01-01T18:38:27.682Z,4.20
2018-01-01T18:40:55.188Z,4.10
2018-01-01T18:43:22.759Z,4.10
2018-01-01T18:45:50.261Z,4.10
2018-01-01T18:48:17.761Z,4.20
2018-01-01T18:50:45.235Z,4.20
2018-01-01T18:53:12.730Z,4.20
2018-01-01T18:55:40.286Z,4.20
2018-01-01T18:58:07.770Z,4.20
2018-01-01T19:00:35.923Z,4.20
2018-01-01T19:03:03.414Z,4.20
2018-01-01T19:05:30.948Z,4.40
2018-01-01T19:07:58.426Z,4.30
2018-01-01T19:10:26.214Z,4.30
2018-01-01T19:12:53.746Z,4.30
2018-01-01T19:15:21.232Z,4.40
2018-01-01T19:17:48.990Z,4.40
2018-01-01T19:20:17.469Z,4.40
2018-01-01T19:22:45.008Z,4.30
2018-01-01T19:25:13.680Z,4.30
2018-01-01T19:27:41.374Z,4.40
2018-01-01T19:30:09.646Z,4.30
2018-01-01T19:32:37.135Z,4.40
2018-01-01T19:35:04.771Z,4.40
2018-01-01T19:37:32.261Z,4.40
2018-01-01T19:39:59.881Z,4.40
2018-01-01T19:42:27.359Z,4.30
2018-01-01T19:44:54.858Z,4.30
2018-01-01T19:47:22.368Z,4.40
2018-01-01T19:49:49.877Z,4.40
2018-01-01T19:52:17.352Z,4.40
2018-01-01T19:54:46.156Z,4.30
2018-01-01T19:57:13.659Z,4.40
2018-01-01T19:59:41.176Z,4.40
2018-01-01T20:02:08.718Z,4.40
2018-01-01T20:04:36.204Z,4.40
2018-01-01T20:07:04.484Z,4.40
2018-01-01T20:09:32.716Z,4.40
2018-01-01T20:12:00.266Z,4.40
2018-01-01T20:14:27.787Z,4.40
2018-01-01T20:16:55.272Z,4.40
2018-01-01T20:19:22.769Z,4.30
2018-01-01T20:21:50.248Z,4.40
2018-01-01T20:24:17.747Z,4.40
2018-01-01T20:26:45.255Z,4.30
2018-01-01T20:29:12.724Z,4.30
2018-01-01T20:31:40.325Z,4.30
2018-01-01T20:34:07.839Z,4.30
2018-01-01T20:36:35.357Z,4.40
2018-01-01T20:39:02.927Z,4.40
2018-01-01T20:41:30.434Z,4.50
2018-01-01T20:43:58.024Z,4.40
2018-01-01T20:46:25.536Z,4.40
2018-01-01T20:48:53.774Z,4.40
2018-01-01T20:51:21.322Z,4.40
2018-01-01T20:53:48.782Z,4.40
2018-01-01T20:56:16.304Z,4.40
2018-01-01T20:58:43.893Z,4.40
2018-01-01T21:01:12.160Z,4.50
2018-01-01T21:03:39.670Z,4.50
2018-01-01T21:06:07.153Z,4.60
2018-01-01T21:08:35.211Z,4.60
2018-01-01T21:11:02.700Z,4.60
2018-01-01T21:13:30.172Z,4.60
2018-01-01T21:15:57.657Z,4.60
2018-01-01T21:18:25.173Z,4.80
2018-01-01T21:20:52.666Z,4.60
2018-01-01T21:23:20.217Z,4.60
2018-01-01T21:25:47.741Z,4.70
2018-01-01T21:28:15.626Z,4.70
2018-01-01T21:30:44.131Z,4.60
2018-01-01T21:33:11.682Z,4.60
2018-01-01T21:35:39.217Z,4.70
2018-01-01T21:38:06.685Z,4.70
2018-01-01T21:40:34.196Z,4.70
2018-01-01T21:43:01.701Z,4.70
2018-01-01T21:45:29.226Z,4.70
2018-01-01T21:47:56.735Z,4.70
2018-01-01T21:50:24.219Z,4.70
2018-01-01T21:52:52.468Z,4.60
2018-01-01T21:55:19.966Z,4.60
2018-01-01T21:57:48.189Z,4.60
2018-01-01T22:00:15.662Z,4.60
2018-01-01T22:02:43.155Z,4.80
2018-01-01T22:05:10.624Z,4.50
2018-01-01T22:07:38.109Z,4.50
2018-01-01T22:10:08.513Z,4.50
2018-01-01T22:12:35.996Z,4.50
2018-01-01T22:15:03.493Z,4.40
2018-01-01T22:17:31.760Z,4.40
2018-01-01T22:20:00.022Z,4.40
2018-01-01T22:22:27.496Z,4.40
2018-01-01T22:24:54.984Z,4.40
2018-01-01T22:27:22.460Z,4.40
2018-01-01T22:29:49.931Z,4.40
2018-01-01T22:32:17.445Z,4.40
2018-01-01T22:34:49.872Z,4.30
2018-01-01T22:37:17.368Z,4.30
2018-01-01T22:39:45.639Z,4.30
2018-01-01T22:42:13.878Z,4.30
2018-01-01T22:44:41.379Z,4.30
2018-01-01T22:47:10.660Z,4.20
2018-01-01T22:49:38.130Z,4.30
2018-01-01T22:52:06.391Z,4.20
2018-01-01T22:54:33.863Z,4.20
2018-01-01T22:57:02.102Z,4.40
2018-01-01T22:59:29.569Z,4.20
2018-01-01T23:01:57.041Z,4.30
2018-01-01T23:04:25.308Z,4.20
2018-01-01T23:06:52.766Z,4.20
2018-01-01T23:09:20.240Z,4.20
2018-01-01T23:11:47.714Z,4.20
2018-01-01T23:14:15.203Z,4.30
2018-01-01T23:16:42.695Z,4.20
2018-01-01T23:19:10.171Z,4.20
2018-01-01T23:21:38.427Z,4.10
2018-01-01T23:24:05.909Z,4.10
2018-01-01T23:26:33.433Z,4.10
2018-01-01T23:29:00.901Z,4.10
2018-01-01T23:31:28.380Z,3.90
2018-01-01T23:33:56.635Z,4.00
2018-01-01T23:36:24.106Z,4.00
2018-01-01T23:38:52.351Z,4.10
2018-01-01T23:41:19.830Z,4.00
2018-01-01T23:43:47.290Z,3.80
2018-01-01T23:46:15.537Z,4.00
2018-01-01T23:48:43.046Z,3.90
2018-01-01T23:51:10.538Z,4.00
2018-01-01T23:53:38.007Z,4.00
2018-01-01T23:56:05.471Z,4.00
2018-01-01T23:58:32.935Z,4.00
